sensor_id;sensor_type;location;lat;lon;timestamp;P1;durP1;ratioP1;P2;durP2;ratioP2
41635;SDS011;27623;51.966;4.602;2023-04-24T00:00:18;4.50;;;1.30;;
41635;SDS011;27623;51.966;4.602;2023-04-24T00:02:43;4.88;;;1.55;;
41635;SDS011;27623;51.966;4.602;2023-04-24T00:05:13;3.95;;;1.23;;
41635;SDS011;27623;51.966;4.602;2023-04-24T00:07:40;4.28;;;1.17;;
41635;SDS011;27623;51.966;4.602;2023-04-24T00:10:06;3.70;;;1.20;;
41635;SDS011;27623;51.966;4.602;2023-04-24T00:12:32;3.28;;;1.10;;
41635;SDS011;27623;51.966;4.602;2023-04-24T00:15:00;3.15;;;1.70;;
41635;SDS011;27623;51.966;4.602;2023-04-24T00:17:26;3.17;;;1.42;;
41635;SDS011;27623;51.966;4.602;2023-04-24T00:19:53;5.07;;;1.10;;
41635;SDS011;27623;51.966;4.602;2023-04-24T00:22:25;2.65;;;1.45;;
41635;SDS011;27623;51.966;4.602;2023-04-24T00:24:51;2.15;;;1.02;;
41635;SDS011;27623;51.966;4.602;2023-04-24T00:27:20;3.72;;;1.20;;
41635;SDS011;27623;51.966;4.602;2023-04-24T00:29:45;2.10;;;1.15;;
41635;SDS011;27623;51.966;4.602;2023-04-24T00:32:11;2.78;;;1.30;;
41635;SDS011;27623;51.966;4.602;2023-04-24T00:34:36;3.40;;;1.10;;
41635;SDS011;27623;51.966;4.602;2023-04-24T00:37:02;2.05;;;0.88;;
41635;SDS011;27623;51.966;4.602;2023-04-24T00:39:27;4.53;;;1.10;;
41635;SDS011;27623;51.966;4.602;2023-04-24T00:41:55;3.53;;;1.23;;
41635;SDS011;27623;51.966;4.602;2023-04-24T00:44:21;3.40;;;1.02;;
41635;SDS011;27623;51.966;4.602;2023-04-24T00:46:47;2.95;;;0.98;;
41635;SDS011;27623;51.966;4.602;2023-04-24T00:49:17;1.50;;;0.82;;
41635;SDS011;27623;51.966;4.602;2023-04-24T00:51:43;1.77;;;0.60;;
41635;SDS011;27623;51.966;4.602;2023-04-24T00:54:10;1.77;;;0.80;;
41635;SDS011;27623;51.966;4.602;2023-04-24T00:56:36;1.90;;;1.00;;
41635;SDS011;27623;51.966;4.602;2023-04-24T00:59:01;3.47;;;1.05;;
41635;SDS011;27623;51.966;4.602;2023-04-24T01:01:27;2.78;;;1.02;;
41635;SDS011;27623;51.966;4.602;2023-04-24T01:03:52;1.70;;;1.02;;
41635;SDS011;27623;51.966;4.602;2023-04-24T01:06:18;2.03;;;1.00;;
41635;SDS011;27623;51.966;4.602;2023-04-24T01:08:45;2.30;;;1.48;;
41635;SDS011;27623;51.966;4.602;2023-04-24T01:11:12;2.20;;;1.20;;
41635;SDS011;27623;51.966;4.602;2023-04-24T01:13:38;3.15;;;1.60;;
41635;SDS011;27623;51.966;4.602;2023-04-24T01:16:04;5.05;;;1.98;;
41635;SDS011;27623;51.966;4.602;2023-04-24T01:18:30;2.72;;;1.73;;
41635;SDS011;27623;51.966;4.602;2023-04-24T01:20:59;2.95;;;1.63;;
41635;SDS011;27623;51.966;4.602;2023-04-24T01:23:26;2.72;;;1.50;;
41635;SDS011;27623;51.966;4.602;2023-04-24T01:25:52;4.78;;;1.60;;
41635;SDS011;27623;51.966;4.602;2023-04-24T01:28:17;3.33;;;1.40;;
41635;SDS011;27623;51.966;4.602;2023-04-24T01:30:43;4.32;;;1.70;;
41635;SDS011;27623;51.966;4.602;2023-04-24T01:33:09;3.17;;;1.70;;
41635;SDS011;27623;51.966;4.602;2023-04-24T01:35:35;2.35;;;1.42;;
41635;SDS011;27623;51.966;4.602;2023-04-24T01:38:02;3.30;;;1.50;;
41635;SDS011;27623;51.966;4.602;2023-04-24T01:40:27;4.57;;;1.60;;
41635;SDS011;27623;51.966;4.602;2023-04-24T01:42:53;3.60;;;2.00;;
41635;SDS011;27623;51.966;4.602;2023-04-24T01:45:18;3.90;;;1.77;;
41635;SDS011;27623;51.966;4.602;2023-04-24T01:47:44;3.20;;;1.73;;
41635;SDS011;27623;51.966;4.602;2023-04-24T01:50:10;3.03;;;1.58;;
41635;SDS011;27623;51.966;4.602;2023-04-24T01:52:40;2.78;;;1.30;;
41635;SDS011;27623;51.966;4.602;2023-04-24T01:55:06;3.90;;;1.13;;
41635;SDS011;27623;51.966;4.602;2023-04-24T01:57:32;1.98;;;0.95;;
41635;SDS011;27623;51.966;4.602;2023-04-24T01:59:58;2.03;;;1.17;;
41635;SDS011;27623;51.966;4.602;2023-04-24T02:02:23;2.33;;;1.00;;
41635;SDS011;27623;51.966;4.602;2023-04-24T02:04:52;2.92;;;1.05;;
41635;SDS011;27623;51.966;4.602;2023-04-24T02:07:20;3.20;;;1.20;;
41635;SDS011;27623;51.966;4.602;2023-04-24T02:09:46;2.42;;;0.93;;
41635;SDS011;27623;51.966;4.602;2023-04-24T02:12:11;2.42;;;1.25;;
41635;SDS011;27623;51.966;4.602;2023-04-24T02:14:36;2.97;;;1.63;;
41635;SDS011;27623;51.966;4.602;2023-04-24T02:17:02;4.35;;;2.10;;
41635;SDS011;27623;51.966;4.602;2023-04-24T02:19:27;4.30;;;2.08;;
41635;SDS011;27623;51.966;4.602;2023-04-24T02:21:53;3.00;;;1.90;;
41635;SDS011;27623;51.966;4.602;2023-04-24T02:24:18;2.72;;;1.60;;
41635;SDS011;27623;51.966;4.602;2023-04-24T02:26:46;2.45;;;1.30;;
41635;SDS011;27623;51.966;4.602;2023-04-24T02:29:11;2.47;;;1.13;;
41635;SDS011;27623;51.966;4.602;2023-04-24T02:31:36;2.40;;;1.00;;
41635;SDS011;27623;51.966;4.602;2023-04-24T02:34:04;2.03;;;1.00;;
41635;SDS011;27623;51.966;4.602;2023-04-24T02:36:29;2.30;;;0.70;;
41635;SDS011;27623;51.966;4.602;2023-04-24T02:38:55;2.35;;;0.70;;
41635;SDS011;27623;51.966;4.602;2023-04-24T02:41:20;3.05;;;0.88;;
41635;SDS011;27623;51.966;4.602;2023-04-24T02:43:46;1.63;;;0.70;;
41635;SDS011;27623;51.966;4.602;2023-04-24T02:46:11;1.67;;;0.93;;
41635;SDS011;27623;51.966;4.602;2023-04-24T02:48:36;2.05;;;1.10;;
41635;SDS011;27623;51.966;4.602;2023-04-24T02:51:02;2.80;;;1.30;;
41635;SDS011;27623;51.966;4.602;2023-04-24T02:53:31;2.05;;;1.10;;
41635;SDS011;27623;51.966;4.602;2023-04-24T02:55:57;4.43;;;1.70;;
41635;SDS011;27623;51.966;4.602;2023-04-24T02:58:24;3.08;;;1.35;;
41635;SDS011;27623;51.966;4.602;2023-04-24T03:00:53;2.92;;;1.40;;
41635;SDS011;27623;51.966;4.602;2023-04-24T03:03:22;3.70;;;1.50;;
41635;SDS011;27623;51.966;4.602;2023-04-24T03:05:47;3.90;;;1.30;;
41635;SDS011;27623;51.966;4.602;2023-04-24T03:08:12;3.53;;;1.40;;
41635;SDS011;27623;51.966;4.602;2023-04-24T03:10:39;4.03;;;1.48;;
41635;SDS011;27623;51.966;4.602;2023-04-24T03:13:04;2.75;;;0.98;;
41635;SDS011;27623;51.966;4.602;2023-04-24T03:15:30;2.42;;;1.25;;
41635;SDS011;27623;51.966;4.602;2023-04-24T03:17:55;4.18;;;0.85;;
41635;SDS011;27623;51.966;4.602;2023-04-24T03:20:21;3.33;;;0.63;;
41635;SDS011;27623;51.966;4.602;2023-04-24T03:22:46;0.80;;;0.47;;
41635;SDS011;27623;51.966;4.602;2023-04-24T03:25:11;2.33;;;0.43;;
41635;SDS011;27623;51.966;4.602;2023-04-24T03:27:37;3.50;;;0.60;;
41635;SDS011;27623;51.966;4.602;2023-04-24T03:30:02;3.10;;;0.77;;
41635;SDS011;27623;51.966;4.602;2023-04-24T03:32:28;2.60;;;0.70;;
41635;SDS011;27623;51.966;4.602;2023-04-24T03:34:54;1.77;;;0.57;;
41635;SDS011;27623;51.966;4.602;2023-04-24T03:37:22;1.65;;;0.70;;
41635;SDS011;27623;51.966;4.602;2023-04-24T03:39:47;3.08;;;0.45;;
41635;SDS011;27623;51.966;4.602;2023-04-24T03:42:12;3.58;;;0.70;;
41635;SDS011;27623;51.966;4.602;2023-04-24T03:44:42;3.67;;;0.73;;
41635;SDS011;27623;51.966;4.602;2023-04-24T03:47:08;4.82;;;0.70;;
41635;SDS011;27623;51.966;4.602;2023-04-24T03:49:33;2.42;;;0.63;;
41635;SDS011;27623;51.966;4.602;2023-04-24T03:51:58;6.00;;;1.25;;
41635;SDS011;27623;51.966;4.602;2023-04-24T03:54:24;2.67;;;0.77;;
41635;SDS011;27623;51.966;4.602;2023-04-24T03:56:51;3.17;;;0.98;;
41635;SDS011;27623;51.966;4.602;2023-04-24T03:59:17;3.45;;;0.85;;
41635;SDS011;27623;51.966;4.602;2023-04-24T04:01:42;4.95;;;0.75;;
41635;SDS011;27623;51.966;4.602;2023-04-24T04:04:07;2.75;;;0.80;;
41635;SDS011;27623;51.966;4.602;2023-04-24T04:06:33;2.53;;;0.75;;
41635;SDS011;27623;51.966;4.602;2023-04-24T04:08:59;2.40;;;0.77;;
41635;SDS011;27623;51.966;4.602;2023-04-24T04:11:25;1.92;;;0.60;;
41635;SDS011;27623;51.966;4.602;2023-04-24T04:13:50;2.03;;;0.63;;
41635;SDS011;27623;51.966;4.602;2023-04-24T04:16:16;1.65;;;0.60;;
41635;SDS011;27623;51.966;4.602;2023-04-24T04:18:42;2.97;;;0.90;;
41635;SDS011;27623;51.966;4.602;2023-04-24T04:21:08;4.70;;;0.57;;
41635;SDS011;27623;51.966;4.602;2023-04-24T04:23:33;3.47;;;1.30;;
41635;SDS011;27623;51.966;4.602;2023-04-24T04:25:59;3.78;;;0.82;;
41635;SDS011;27623;51.966;4.602;2023-04-24T04:28:24;2.55;;;0.60;;
41635;SDS011;27623;51.966;4.602;2023-04-24T04:30:50;4.45;;;1.05;;
41635;SDS011;27623;51.966;4.602;2023-04-24T04:33:19;3.95;;;0.60;;
41635;SDS011;27623;51.966;4.602;2023-04-24T04:35:45;3.03;;;0.70;;
41635;SDS011;27623;51.966;4.602;2023-04-24T04:38:13;3.20;;;0.80;;
41635;SDS011;27623;51.966;4.602;2023-04-24T04:40:39;2.97;;;1.00;;
41635;SDS011;27623;51.966;4.602;2023-04-24T04:43:05;3.45;;;0.95;;
41635;SDS011;27623;51.966;4.602;2023-04-24T04:45:31;2.40;;;0.80;;
41635;SDS011;27623;51.966;4.602;2023-04-24T04:47:57;2.90;;;0.63;;
41635;SDS011;27623;51.966;4.602;2023-04-24T04:50:25;5.80;;;1.60;;
41635;SDS011;27623;51.966;4.602;2023-04-24T04:52:51;6.20;;;1.50;;
41635;SDS011;27623;51.966;4.602;2023-04-24T04:55:17;8.82;;;1.63;;
41635;SDS011;27623;51.966;4.602;2023-04-24T04:57:45;3.33;;;1.52;;
41635;SDS011;27623;51.966;4.602;2023-04-24T05:00:11;3.83;;;1.55;;
41635;SDS011;27623;51.966;4.602;2023-04-24T05:02:40;2.97;;;1.25;;
41635;SDS011;27623;51.966;4.602;2023-04-24T05:05:06;3.67;;;1.50;;
41635;SDS011;27623;51.966;4.602;2023-04-24T05:07:32;8.05;;;1.73;;
41635;SDS011;27623;51.966;4.602;2023-04-24T05:09:57;5.28;;;1.88;;
41635;SDS011;27623;51.966;4.602;2023-04-24T05:12:23;5.53;;;2.22;;
41635;SDS011;27623;51.966;4.602;2023-04-24T05:14:48;8.13;;;2.70;;
41635;SDS011;27623;51.966;4.602;2023-04-24T05:17:13;7.10;;;3.25;;
41635;SDS011;27623;51.966;4.602;2023-04-24T05:19:39;9.30;;;4.38;;
41635;SDS011;27623;51.966;4.602;2023-04-24T05:22:04;11.48;;;5.47;;
41635;SDS011;27623;51.966;4.602;2023-04-24T05:24:32;9.45;;;4.97;;
41635;SDS011;27623;51.966;4.602;2023-04-24T05:26:58;13.82;;;7.13;;
41635;SDS011;27623;51.966;4.602;2023-04-24T05:29:24;15.25;;;6.18;;
41635;SDS011;27623;51.966;4.602;2023-04-24T05:31:53;14.60;;;6.05;;
41635;SDS011;27623;51.966;4.602;2023-04-24T05:34:22;15.00;;;5.75;;
41635;SDS011;27623;51.966;4.602;2023-04-24T05:36:50;15.43;;;6.03;;
41635;SDS011;27623;51.966;4.602;2023-04-24T05:39:16;11.07;;;5.97;;
41635;SDS011;27623;51.966;4.602;2023-04-24T05:41:41;17.83;;;5.70;;
41635;SDS011;27623;51.966;4.602;2023-04-24T05:44:06;15.77;;;6.60;;
41635;SDS011;27623;51.966;4.602;2023-04-24T05:46:32;16.75;;;6.63;;
41635;SDS011;27623;51.966;4.602;2023-04-24T05:49:00;17.55;;;6.80;;
41635;SDS011;27623;51.966;4.602;2023-04-24T05:51:25;19.02;;;6.20;;
41635;SDS011;27623;51.966;4.602;2023-04-24T05:53:54;15.43;;;6.22;;
41635;SDS011;27623;51.966;4.602;2023-04-24T05:56:19;14.65;;;5.97;;
41635;SDS011;27623;51.966;4.602;2023-04-24T05:58:47;21.98;;;6.85;;
41635;SDS011;27623;51.966;4.602;2023-04-24T06:01:13;17.20;;;6.88;;
41635;SDS011;27623;51.966;4.602;2023-04-24T06:03:39;19.67;;;7.00;;
41635;SDS011;27623;51.966;4.602;2023-04-24T06:06:06;16.95;;;6.40;;
41635;SDS011;27623;51.966;4.602;2023-04-24T06:08:32;13.68;;;6.65;;
41635;SDS011;27623;51.966;4.602;2023-04-24T06:10:57;14.13;;;5.63;;
41635;SDS011;27623;51.966;4.602;2023-04-24T06:13:25;14.48;;;6.82;;
41635;SDS011;27623;51.966;4.602;2023-04-24T06:15:53;18.60;;;6.43;;
41635;SDS011;27623;51.966;4.602;2023-04-24T06:18:19;16.17;;;6.32;;
41635;SDS011;27623;51.966;4.602;2023-04-24T06:20:45;23.98;;;5.30;;
41635;SDS011;27623;51.966;4.602;2023-04-24T06:23:10;16.55;;;5.05;;
41635;SDS011;27623;51.966;4.602;2023-04-24T06:25:36;18.65;;;4.68;;
41635;SDS011;27623;51.966;4.602;2023-04-24T06:28:02;13.43;;;4.50;;
41635;SDS011;27623;51.966;4.602;2023-04-24T06:30:28;15.90;;;4.70;;
41635;SDS011;27623;51.966;4.602;2023-04-24T06:32:53;14.20;;;3.42;;
41635;SDS011;27623;51.966;4.602;2023-04-24T06:35:19;16.92;;;4.45;;
41635;SDS011;27623;51.966;4.602;2023-04-24T06:37:44;15.50;;;4.28;;
41635;SDS011;27623;51.966;4.602;2023-04-24T06:40:10;18.27;;;4.32;;
41635;SDS011;27623;51.966;4.602;2023-04-24T06:42:38;9.30;;;4.03;;
41635;SDS011;27623;51.966;4.602;2023-04-24T06:45:04;20.20;;;4.22;;
41635;SDS011;27623;51.966;4.602;2023-04-24T06:47:30;21.75;;;4.20;;
41635;SDS011;27623;51.966;4.602;2023-04-24T06:49:55;14.15;;;4.03;;
41635;SDS011;27623;51.966;4.602;2023-04-24T06:52:21;16.70;;;4.78;;
41635;SDS011;27623;51.966;4.602;2023-04-24T06:54:46;16.98;;;3.85;;
41635;SDS011;27623;51.966;4.602;2023-04-24T06:57:12;17.13;;;3.70;;
41635;SDS011;27623;51.966;4.602;2023-04-24T06:59:37;18.00;;;4.43;;
41635;SDS011;27623;51.966;4.602;2023-04-24T07:02:03;29.20;;;4.53;;
41635;SDS011;27623;51.966;4.602;2023-04-24T07:04:28;19.15;;;3.65;;
41635;SDS011;27623;51.966;4.602;2023-04-24T07:06:55;15.95;;;3.15;;
41635;SDS011;27623;51.966;4.602;2023-04-24T07:09:21;14.25;;;3.60;;
41635;SDS011;27623;51.966;4.602;2023-04-24T07:11:48;14.40;;;3.15;;
41635;SDS011;27623;51.966;4.602;2023-04-24T07:14:14;24.77;;;3.40;;
41635;SDS011;27623;51.966;4.602;2023-04-24T07:16:40;18.42;;;3.05;;
41635;SDS011;27623;51.966;4.602;2023-04-24T07:19:05;19.27;;;3.20;;
41635;SDS011;27623;51.966;4.602;2023-04-24T07:21:31;13.43;;;3.30;;
41635;SDS011;27623;51.966;4.602;2023-04-24T07:23:58;9.82;;;2.40;;
41635;SDS011;27623;51.966;4.602;2023-04-24T07:26:27;14.18;;;3.60;;
41635;SDS011;27623;51.966;4.602;2023-04-24T07:28:54;10.95;;;2.75;;
41635;SDS011;27623;51.966;4.602;2023-04-24T07:31:20;24.75;;;3.60;;
41635;SDS011;27623;51.966;4.602;2023-04-24T07:33:46;21.27;;;3.00;;
41635;SDS011;27623;51.966;4.602;2023-04-24T07:36:11;11.20;;;3.00;;
41635;SDS011;27623;51.966;4.602;2023-04-24T07:38:41;14.07;;;2.28;;
41635;SDS011;27623;51.966;4.602;2023-04-24T07:41:07;18.15;;;2.53;;
41635;SDS011;27623;51.966;4.602;2023-04-24T07:43:35;10.50;;;2.17;;
41635;SDS011;27623;51.966;4.602;2023-04-24T07:46:00;16.15;;;2.72;;
41635;SDS011;27623;51.966;4.602;2023-04-24T07:48:26;16.98;;;2.40;;
41635;SDS011;27623;51.966;4.602;2023-04-24T07:50:53;9.15;;;2.00;;
41635;SDS011;27623;51.966;4.602;2023-04-24T07:53:19;9.80;;;2.38;;
41635;SDS011;27623;51.966;4.602;2023-04-24T07:55:45;11.93;;;2.25;;
41635;SDS011;27623;51.966;4.602;2023-04-24T07:58:10;15.00;;;2.10;;
41635;SDS011;27623;51.966;4.602;2023-04-24T08:00:38;10.70;;;2.15;;
41635;SDS011;27623;51.966;4.602;2023-04-24T08:03:04;15.52;;;2.97;;
41635;SDS011;27623;51.966;4.602;2023-04-24T08:05:29;19.40;;;2.65;;
41635;SDS011;27623;51.966;4.602;2023-04-24T08:07:55;8.40;;;2.20;;
41635;SDS011;27623;51.966;4.602;2023-04-24T08:10:21;20.45;;;2.53;;
41635;SDS011;27623;51.966;4.602;2023-04-24T08:12:47;15.50;;;2.22;;
41635;SDS011;27623;51.966;4.602;2023-04-24T08:15:13;9.57;;;2.20;;
41635;SDS011;27623;51.966;4.602;2023-04-24T08:17:38;13.05;;;3.03;;
41635;SDS011;27623;51.966;4.602;2023-04-24T08:20:04;7.80;;;1.92;;
41635;SDS011;27623;51.966;4.602;2023-04-24T08:22:30;12.60;;;2.42;;
41635;SDS011;27623;51.966;4.602;2023-04-24T08:24:56;8.73;;;2.05;;
41635;SDS011;27623;51.966;4.602;2023-04-24T08:27:22;7.75;;;2.08;;
41635;SDS011;27623;51.966;4.602;2023-04-24T08:29:49;9.18;;;1.75;;
41635;SDS011;27623;51.966;4.602;2023-04-24T08:32:15;10.95;;;1.77;;
41635;SDS011;27623;51.966;4.602;2023-04-24T08:34:42;11.77;;;2.10;;
41635;SDS011;27623;51.966;4.602;2023-04-24T08:37:08;9.02;;;1.77;;
41635;SDS011;27623;51.966;4.602;2023-04-24T08:39:33;11.95;;;2.42;;
41635;SDS011;27623;51.966;4.602;2023-04-24T08:41:59;11.77;;;2.33;;
41635;SDS011;27623;51.966;4.602;2023-04-24T08:44:31;7.65;;;2.20;;
41635;SDS011;27623;51.966;4.602;2023-04-24T08:46:57;6.18;;;1.48;;
41635;SDS011;27623;51.966;4.602;2023-04-24T08:49:23;5.28;;;1.42;;
41635;SDS011;27623;51.966;4.602;2023-04-24T08:51:50;7.93;;;1.77;;
41635;SDS011;27623;51.966;4.602;2023-04-24T08:54:18;10.15;;;1.60;;
41635;SDS011;27623;51.966;4.602;2023-04-24T08:56:47;6.43;;;1.63;;
41635;SDS011;27623;51.966;4.602;2023-04-24T08:59:14;6.22;;;1.15;;
41635;SDS011;27623;51.966;4.602;2023-04-24T09:01:40;10.75;;;1.77;;
41635;SDS011;27623;51.966;4.602;2023-04-24T09:04:08;5.57;;;1.15;;
41635;SDS011;27623;51.966;4.602;2023-04-24T09:06:39;4.90;;;1.20;;
41635;SDS011;27623;51.966;4.602;2023-04-24T09:09:04;5.47;;;0.88;;
41635;SDS011;27623;51.966;4.602;2023-04-24T09:11:32;8.70;;;1.40;;
41635;SDS011;27623;51.966;4.602;2023-04-24T09:13:58;13.88;;;1.38;;
41635;SDS011;27623;51.966;4.602;2023-04-24T09:16:25;7.03;;;1.25;;
41635;SDS011;27623;51.966;4.602;2023-04-24T09:18:51;3.72;;;0.95;;
41635;SDS011;27623;51.966;4.602;2023-04-24T09:21:17;5.70;;;1.30;;
41635;SDS011;27623;51.966;4.602;2023-04-24T09:23:44;6.57;;;1.13;;
41635;SDS011;27623;51.966;4.602;2023-04-24T09:26:12;7.28;;;1.85;;
41635;SDS011;27623;51.966;4.602;2023-04-24T09:28:39;10.25;;;1.67;;
41635;SDS011;27623;51.966;4.602;2023-04-24T09:31:12;5.00;;;0.75;;
41635;SDS011;27623;51.966;4.602;2023-04-24T09:33:40;4.50;;;1.00;;
41635;SDS011;27623;51.966;4.602;2023-04-24T09:36:19;6.53;;;1.30;;
41635;SDS011;27623;51.966;4.602;2023-04-24T09:38:44;6.30;;;1.00;;
41635;SDS011;27623;51.966;4.602;2023-04-24T09:41:13;5.90;;;0.93;;
41635;SDS011;27623;51.966;4.602;2023-04-24T09:43:38;5.95;;;1.10;;
41635;SDS011;27623;51.966;4.602;2023-04-24T09:46:05;3.22;;;0.70;;
41635;SDS011;27623;51.966;4.602;2023-04-24T09:48:32;8.15;;;1.10;;
41635;SDS011;27623;51.966;4.602;2023-04-24T09:51:03;8.30;;;2.03;;
41635;SDS011;27623;51.966;4.602;2023-04-24T09:53:31;4.35;;;0.80;;
41635;SDS011;27623;51.966;4.602;2023-04-24T09:56:06;3.80;;;0.55;;
41635;SDS011;27623;51.966;4.602;2023-04-24T09:58:35;3.80;;;0.70;;
41635;SDS011;27623;51.966;4.602;2023-04-24T10:01:02;6.13;;;0.90;;
41635;SDS011;27623;51.966;4.602;2023-04-24T10:03:31;6.22;;;0.70;;
41635;SDS011;27623;51.966;4.602;2023-04-24T10:06:03;4.05;;;0.70;;
41635;SDS011;27623;51.966;4.602;2023-04-24T10:08:36;3.55;;;0.70;;
41635;SDS011;27623;51.966;4.602;2023-04-24T10:11:02;6.05;;;0.85;;
41635;SDS011;27623;51.966;4.602;2023-04-24T10:13:28;7.57;;;1.30;;
41635;SDS011;27623;51.966;4.602;2023-04-24T10:15:54;11.93;;;1.05;;
41635;SDS011;27623;51.966;4.602;2023-04-24T10:18:21;3.95;;;1.02;;
41635;SDS011;27623;51.966;4.602;2023-04-24T10:20:46;2.28;;;0.90;;
41635;SDS011;27623;51.966;4.602;2023-04-24T10:23:12;6.93;;;0.80;;
41635;SDS011;27623;51.966;4.602;2023-04-24T10:25:37;5.68;;;1.02;;
41635;SDS011;27623;51.966;4.602;2023-04-24T10:28:03;6.35;;;1.20;;
41635;SDS011;27623;51.966;4.602;2023-04-24T10:30:30;5.70;;;2.05;;
41635;SDS011;27623;51.966;4.602;2023-04-24T10:33:01;5.35;;;0.88;;
41635;SDS011;27623;51.966;4.602;2023-04-24T10:35:29;4.50;;;0.60;;
41635;SDS011;27623;51.966;4.602;2023-04-24T10:37:56;6.18;;;1.10;;
41635;SDS011;27623;51.966;4.602;2023-04-24T10:40:27;7.10;;;0.93;;
41635;SDS011;27623;51.966;4.602;2023-04-24T10:42:56;5.80;;;1.00;;
41635;SDS011;27623;51.966;4.602;2023-04-24T10:45:22;2.83;;;0.77;;
41635;SDS011;27623;51.966;4.602;2023-04-24T10:47:52;5.70;;;1.10;;
41635;SDS011;27623;51.966;4.602;2023-04-24T10:50:30;5.63;;;1.40;;
41635;SDS011;27623;51.966;4.602;2023-04-24T10:53:15;7.38;;;0.98;;
41635;SDS011;27623;51.966;4.602;2023-04-24T10:58:09;9.82;;;1.15;;
41635;SDS011;27623;51.966;4.602;2023-04-24T11:00:43;7.45;;;0.98;;
41635;SDS011;27623;51.966;4.602;2023-04-24T11:03:25;8.88;;;0.85;;
41635;SDS011;27623;51.966;4.602;2023-04-24T11:05:52;7.80;;;1.95;;
41635;SDS011;27623;51.966;4.602;2023-04-24T11:08:24;6.07;;;0.90;;
41635;SDS011;27623;51.966;4.602;2023-04-24T11:11:01;8.05;;;1.30;;
41635;SDS011;27623;51.966;4.602;2023-04-24T11:16:28;9.68;;;0.93;;
41635;SDS011;27623;51.966;4.602;2023-04-24T11:19:05;3.70;;;0.80;;
41635;SDS011;27623;51.966;4.602;2023-04-24T11:21:31;1.27;;;0.50;;
41635;SDS011;27623;51.966;4.602;2023-04-24T11:26:59;7.63;;;1.63;;
41635;SDS011;27623;51.966;4.602;2023-04-24T11:29:49;4.85;;;0.60;;
41635;SDS011;27623;51.966;4.602;2023-04-24T11:32:27;8.00;;;0.80;;
41635;SDS011;27623;51.966;4.602;2023-04-24T11:34:56;6.05;;;0.68;;
41635;SDS011;27623;51.966;4.602;2023-04-24T11:37:23;6.20;;;1.02;;
41635;SDS011;27623;51.966;4.602;2023-04-24T11:39:54;6.53;;;0.90;;
41635;SDS011;27623;51.966;4.602;2023-04-24T11:42:22;7.55;;;0.80;;
41635;SDS011;27623;51.966;4.602;2023-04-24T11:44:49;5.50;;;1.10;;
41635;SDS011;27623;51.966;4.602;2023-04-24T11:47:16;5.68;;;0.77;;
41635;SDS011;27623;51.966;4.602;2023-04-24T11:49:42;7.18;;;0.80;;
41635;SDS011;27623;51.966;4.602;2023-04-24T11:52:10;4.80;;;1.05;;
41635;SDS011;27623;51.966;4.602;2023-04-24T11:54:36;4.45;;;1.25;;
41635;SDS011;27623;51.966;4.602;2023-04-24T11:57:05;6.63;;;1.00;;
41635;SDS011;27623;51.966;4.602;2023-04-24T11:59:37;9.32;;;0.98;;
41635;SDS011;27623;51.966;4.602;2023-04-24T12:02:03;10.77;;;1.15;;
41635;SDS011;27623;51.966;4.602;2023-04-24T12:04:37;7.22;;;1.50;;
41635;SDS011;27623;51.966;4.602;2023-04-24T12:07:04;4.20;;;1.08;;
41635;SDS011;27623;51.966;4.602;2023-04-24T12:12:10;10.13;;;1.40;;
41635;SDS011;27623;51.966;4.602;2023-04-24T12:14:43;10.02;;;1.42;;
41635;SDS011;27623;51.966;4.602;2023-04-24T12:17:08;6.88;;;1.45;;
41635;SDS011;27623;51.966;4.602;2023-04-24T12:19:33;14.77;;;1.38;;
41635;SDS011;27623;51.966;4.602;2023-04-24T12:21:59;7.45;;;1.10;;
41635;SDS011;27623;51.966;4.602;2023-04-24T12:24:26;7.53;;;1.50;;
41635;SDS011;27623;51.966;4.602;2023-04-24T12:26:51;13.93;;;1.85;;
41635;SDS011;27623;51.966;4.602;2023-04-24T12:29:20;5.65;;;1.23;;
41635;SDS011;27623;51.966;4.602;2023-04-24T12:31:46;6.20;;;1.48;;
41635;SDS011;27623;51.966;4.602;2023-04-24T12:34:21;8.80;;;1.30;;
41635;SDS011;27623;51.966;4.602;2023-04-24T12:36:48;12.80;;;2.00;;
41635;SDS011;27623;51.966;4.602;2023-04-24T12:39:17;9.18;;;1.83;;
41635;SDS011;27623;51.966;4.602;2023-04-24T12:41:55;11.38;;;2.55;;
41635;SDS011;27623;51.966;4.602;2023-04-24T12:44:28;12.52;;;1.80;;
41635;SDS011;27623;51.966;4.602;2023-04-24T12:46:59;9.30;;;1.63;;
41635;SDS011;27623;51.966;4.602;2023-04-24T12:49:28;11.75;;;1.90;;
41635;SDS011;27623;51.966;4.602;2023-04-24T12:51:54;15.70;;;2.08;;
41635;SDS011;27623;51.966;4.602;2023-04-24T12:54:19;11.45;;;2.63;;
41635;SDS011;27623;51.966;4.602;2023-04-24T12:56:45;4.13;;;1.70;;
41635;SDS011;27623;51.966;4.602;2023-04-24T12:59:10;11.30;;;2.05;;
41635;SDS011;27623;51.966;4.602;2023-04-24T13:01:36;10.82;;;1.60;;
41635;SDS011;27623;51.966;4.602;2023-04-24T13:04:01;12.07;;;2.03;;
41635;SDS011;27623;51.966;4.602;2023-04-24T13:06:26;12.77;;;2.15;;
41635;SDS011;27623;51.966;4.602;2023-04-24T13:08:52;9.68;;;1.90;;
41635;SDS011;27623;51.966;4.602;2023-04-24T13:11:19;9.20;;;1.73;;
41635;SDS011;27623;51.966;4.602;2023-04-24T13:13:46;19.17;;;2.55;;
41635;SDS011;27623;51.966;4.602;2023-04-24T13:16:11;13.50;;;2.10;;
41635;SDS011;27623;51.966;4.602;2023-04-24T13:18:37;13.50;;;2.45;;
41635;SDS011;27623;51.966;4.602;2023-04-24T13:21:04;10.20;;;2.35;;
41635;SDS011;27623;51.966;4.602;2023-04-24T13:23:30;12.10;;;1.88;;
41635;SDS011;27623;51.966;4.602;2023-04-24T13:25:55;10.18;;;2.17;;
41635;SDS011;27623;51.966;4.602;2023-04-24T13:28:24;9.00;;;1.90;;
41635;SDS011;27623;51.966;4.602;2023-04-24T13:30:50;9.18;;;2.40;;
41635;SDS011;27623;51.966;4.602;2023-04-24T13:33:17;8.13;;;2.00;;
41635;SDS011;27623;51.966;4.602;2023-04-24T13:35:43;11.52;;;2.15;;
41635;SDS011;27623;51.966;4.602;2023-04-24T13:38:10;11.18;;;1.95;;
41635;SDS011;27623;51.966;4.602;2023-04-24T13:40:36;16.27;;;2.03;;
41635;SDS011;27623;51.966;4.602;2023-04-24T13:43:01;7.75;;;1.95;;
41635;SDS011;27623;51.966;4.602;2023-04-24T13:45:29;10.02;;;2.30;;
41635;SDS011;27623;51.966;4.602;2023-04-24T13:47:55;10.02;;;2.17;;
41635;SDS011;27623;51.966;4.602;2023-04-24T13:50:23;10.88;;;2.42;;
41635;SDS011;27623;51.966;4.602;2023-04-24T13:52:48;7.03;;;2.25;;
41635;SDS011;27623;51.966;4.602;2023-04-24T13:55:14;7.47;;;2.15;;
41635;SDS011;27623;51.966;4.602;2023-04-24T13:57:39;7.32;;;1.92;;
41635;SDS011;27623;51.966;4.602;2023-04-24T14:00:05;6.05;;;1.70;;
41635;SDS011;27623;51.966;4.602;2023-04-24T14:02:35;6.97;;;1.92;;
41635;SDS011;27623;51.966;4.602;2023-04-24T14:05:01;7.70;;;2.22;;
41635;SDS011;27623;51.966;4.602;2023-04-24T14:07:28;9.00;;;2.00;;
41635;SDS011;27623;51.966;4.602;2023-04-24T14:09:56;5.50;;;1.67;;
41635;SDS011;27623;51.966;4.602;2023-04-24T14:12:24;9.32;;;2.22;;
41635;SDS011;27623;51.966;4.602;2023-04-24T14:14:50;9.25;;;2.47;;
41635;SDS011;27623;51.966;4.602;2023-04-24T14:17:16;7.65;;;2.15;;
41635;SDS011;27623;51.966;4.602;2023-04-24T14:19:41;12.93;;;2.40;;
41635;SDS011;27623;51.966;4.602;2023-04-24T14:22:06;8.40;;;2.30;;
41635;SDS011;27623;51.966;4.602;2023-04-24T14:24:32;14.40;;;2.95;;
41635;SDS011;27623;51.966;4.602;2023-04-24T14:26:57;10.48;;;2.38;;
41635;SDS011;27623;51.966;4.602;2023-04-24T14:29:22;11.13;;;3.55;;
41635;SDS011;27623;51.966;4.602;2023-04-24T14:31:50;28.13;;;3.13;;
41635;SDS011;27623;51.966;4.602;2023-04-24T14:34:16;13.55;;;3.10;;
41635;SDS011;27623;51.966;4.602;2023-04-24T14:36:41;12.25;;;2.58;;
41635;SDS011;27623;51.966;4.602;2023-04-24T14:39:07;11.32;;;2.78;;
41635;SDS011;27623;51.966;4.602;2023-04-24T14:41:34;12.70;;;3.03;;
41635;SDS011;27623;51.966;4.602;2023-04-24T14:44:04;11.88;;;2.72;;
41635;SDS011;27623;51.966;4.602;2023-04-24T14:46:30;12.55;;;3.35;;
41635;SDS011;27623;51.966;4.602;2023-04-24T14:48:56;16.70;;;2.92;;
41635;SDS011;27623;51.966;4.602;2023-04-24T14:51:22;10.82;;;2.80;;